• Join FlightAware (Why Join?)
  • Login
  • US Flag 
06:29PM EDT


 

Airport Tracker/Info


-or-


 

Live Flight TrackerFlight Track Log ✈ SKW6446 ✈ 25-Apr-2013 ✈ KLAX - KSMX

Flight Track Log - Related Links

Times and Time Zones

All times are in EDT time to prevent confusion due to time zone crossing. See the SKW6446 flight status page for this flight to view local times or setup timezone preferences in your user account.

Time Position Orientation Groundspeed Altitude Reporting Facility
EDT Latitude Longitude Course Direction KTS MPH feet Rate Location/Type
08:23PM 34.1486 -119.0986 320° Northwest  Level FlightAware Approximate
08:24PM 34.1918 -119.1939 298° West  Level FlightAware Approximate
08:25PM 34.2415 -119.2830 301° West  Level FlightAware Approximate
08:26PM 34.2881 -119.3762 301° West  Level FlightAware Approximate
08:27PM 34.3347 -119.4694 301° West  Level FlightAware Approximate
08:28PM 34.3881 -119.5570 309° West  Level FlightAware Approximate
08:29PM 34.4446 -119.6419 309° West  Level FlightAware Approximate
08:30PM 34.4851 -119.7369 301° West  Level FlightAware Approximate
08:31PM 34.5318 -119.8303 301° West  Level FlightAware Approximate
08:32PM 34.5786 -119.9237 301° West  Level FlightAware Approximate
08:33PM 34.6253 -120.0172 301° West  Level FlightAware Approximate
08:34PM 34.6721 -120.1107 301° West  Level FlightAware Approximate
08:35PM 34.7188 -120.2043 301° West  Level FlightAware Approximate
08:36PM 34.7614 -120.2837 309° West  Level FlightAware Approximate
08:37PM 34.8205 -120.3663 312° West  Level FlightAware Approximate
08:38PM 34.8813 -120.4473 312° West  Level FlightAware Approximate
08:39PM 34.8833 -120.4500 312° West  Level FlightAware Approximate
08:40PM 34.8999 -120.4581 312° West  Level Estimated
08:41PM 34.8999 -120.4581 312° West  Level Estimated
08:42PM 34.8999 -120.4581 312° West  Level Estimated
08:43PM 34.8999 -120.4581 312° West  Level Estimated
08:44PM 34.8999 -120.4581 312° West  Level Estimated
08:45PM 34.8999 -120.4581 312° West  Level Estimated
08:46PM 34.8999 -120.4581 312° West  Level Estimated
08:47PM 34.8999 -120.4581 312° West  Level Estimated
08:48PM 34.8999 -120.4581 312° West  Level Estimated
08:49PM 34.8999 -120.4581 312° West  Level Estimated
08:50PM 34.8999 -120.4581 312° West  Level Estimated
08:51PM 34.8999 -120.4581 312° West  Level Estimated